createdAt,value
2022-12-31T00:01:07.789Z,10.67
2022-12-31T00:03:36.353Z,16.17
2022-12-31T00:06:12.867Z,7.35
2022-12-31T00:08:41.907Z,10.50
2022-12-31T00:11:09.395Z,10.02
2022-12-31T00:13:37.079Z,7.40
2022-12-31T00:16:12.247Z,8.85
2022-12-31T00:18:44.354Z,10.60
2022-12-31T00:21:12.522Z,9.90
2022-12-31T00:23:40.324Z,11.00
2022-12-31T00:26:10.084Z,13.60
2022-12-31T00:28:38.219Z,11.18
2022-12-31T00:31:07.180Z,9.45
2022-12-31T00:33:34.750Z,13.75
2022-12-31T00:36:06.212Z,9.05
2022-12-31T00:38:33.779Z,7.47
2022-12-31T00:41:01.443Z,8.55
2022-12-31T00:43:30.485Z,10.80
2022-12-31T00:45:58.048Z,11.25
2022-12-31T00:48:26.363Z,10.98
2022-12-31T00:50:54.498Z,12.90
2022-12-31T00:53:22.212Z,7.20
2022-12-31T00:55:49.736Z,6.93
2022-12-31T00:58:17.677Z,9.43
2022-12-31T01:00:46.633Z,8.95
2022-12-31T01:03:14.323Z,10.77
2022-12-31T01:05:50.498Z,6.95
2022-12-31T01:08:18.116Z,10.40
2022-12-31T01:11:06.417Z,6.55
2022-12-31T01:13:33.988Z,9.55
2022-12-31T01:16:08.867Z,6.90
2022-12-31T01:18:38.422Z,9.32
2022-12-31T01:21:07.494Z,11.10
2022-12-31T01:23:35.489Z,7.05
2022-12-31T01:26:08.186Z,7.68
2022-12-31T01:28:36.385Z,9.80
2022-12-31T01:31:04.958Z,7.60
2022-12-31T01:33:34.269Z,11.60
2022-12-31T01:36:05.514Z,11.23
2022-12-31T01:38:33.112Z,10.85
2022-12-31T01:41:01.233Z,8.87
2022-12-31T01:43:49.004Z,5.38
2022-12-31T01:46:19.787Z,5.35
2022-12-31T01:48:50.162Z,5.30
2022-12-31T01:51:18.226Z,8.15
2022-12-31T01:53:46.804Z,6.10
2022-12-31T01:56:15.194Z,6.22
2022-12-31T01:58:44.812Z,7.10
2022-12-31T02:01:15.589Z,7.55
2022-12-31T02:03:43.838Z,7.05
2022-12-31T02:06:16.052Z,4.67
2022-12-31T02:08:44.565Z,6.38
2022-12-31T02:11:26.981Z,11.02
2022-12-31T02:13:58.500Z,5.72
2022-12-31T02:16:31.382Z,5.35
2022-12-31T02:19:01.246Z,6.77
2022-12-31T02:21:53.739Z,8.73
2022-12-31T02:24:37.078Z,6.15
2022-12-31T02:27:07.660Z,6.78
2022-12-31T02:29:42.931Z,7.55
2022-12-31T02:32:14.954Z,5.90
2022-12-31T02:34:48.788Z,6.53
2022-12-31T02:37:22.274Z,6.55
2022-12-31T02:39:50.211Z,6.88
2022-12-31T02:42:17.844Z,5.57
2022-12-31T02:44:45.436Z,5.57
2022-12-31T02:47:21.381Z,4.68
2022-12-31T02:49:55.190Z,4.32
2022-12-31T02:52:29.113Z,4.00
2022-12-31T02:55:01.270Z,4.38
2022-12-31T02:57:31.699Z,4.87
2022-12-31T03:00:19.211Z,1.95
2022-12-31T03:02:49.279Z,3.00
2022-12-31T03:05:18.459Z,3.75
2022-12-31T03:07:46.438Z,3.53
2022-12-31T03:10:14.437Z,3.23
2022-12-31T03:12:48.418Z,4.32
2022-12-31T03:15:26.196Z,2.40
2022-12-31T03:18:00.017Z,3.30
2022-12-31T03:20:46.584Z,2.55
2022-12-31T03:23:15.314Z,3.43
2022-12-31T03:25:44.643Z,4.22
2022-12-31T03:28:13.744Z,4.28
2022-12-31T03:30:42.512Z,2.72
2022-12-31T03:33:14.311Z,2.88
2022-12-31T03:35:42.686Z,3.70
2022-12-31T03:38:10.340Z,4.85
2022-12-31T03:40:39.502Z,3.28
2022-12-31T03:43:07.153Z,2.75
2022-12-31T03:45:35.380Z,3.88
2022-12-31T03:48:03.096Z,3.93
2022-12-31T03:50:32.509Z,4.75
2022-12-31T03:53:00.260Z,4.93
2022-12-31T03:55:27.970Z,4.75
2022-12-31T03:57:55.587Z,4.78
2022-12-31T04:00:23.792Z,3.40
2022-12-31T04:02:51.749Z,4.72
2022-12-31T04:05:19.678Z,2.70
2022-12-31T04:07:48.544Z,3.85
2022-12-31T04:10:18.291Z,4.25
2022-12-31T04:12:45.857Z,6.87
2022-12-31T04:15:17.124Z,3.03
2022-12-31T04:17:44.732Z,4.28
2022-12-31T04:20:12.453Z,3.40
2022-12-31T04:22:39.954Z,4.15
2022-12-31T04:25:11.212Z,5.53
2022-12-31T04:27:39.510Z,3.35
2022-12-31T04:30:07.849Z,2.10
2022-12-31T04:32:35.480Z,3.67
2022-12-31T04:35:03.279Z,5.55
2022-12-31T04:37:30.796Z,3.40
2022-12-31T04:40:03.696Z,5.78
2022-12-31T04:42:37.875Z,5.68
2022-12-31T04:45:05.917Z,4.90
2022-12-31T04:47:33.540Z,7.10
2022-12-31T04:50:01.134Z,7.07
2022-12-31T04:52:28.799Z,10.38
2022-12-31T04:54:56.444Z,8.55
2022-12-31T04:57:24.011Z,11.27
2022-12-31T04:59:53.904Z,4.22
2022-12-31T05:02:21.827Z,6.97
2022-12-31T05:04:49.644Z,7.68
2022-12-31T05:07:17.296Z,8.45
2022-12-31T05:09:44.826Z,8.13
2022-12-31T05:12:12.957Z,12.27
2022-12-31T05:14:40.592Z,5.63
2022-12-31T05:17:09.593Z,5.70
2022-12-31T05:19:37.682Z,6.70
2022-12-31T05:22:22.661Z,12.65
2022-12-31T05:24:52.306Z,6.80
2022-12-31T05:27:19.947Z,5.47
2022-12-31T05:29:47.665Z,9.23
2022-12-31T05:32:16.597Z,8.18
2022-12-31T05:34:44.496Z,7.70
2022-12-31T05:37:14.982Z,9.65
2022-12-31T05:39:42.538Z,13.17
2022-12-31T05:42:10.215Z,14.27
2022-12-31T05:44:37.750Z,10.65
2022-12-31T05:47:05.354Z,8.80
2022-12-31T05:49:34.320Z,11.43
2022-12-31T05:52:02.025Z,10.03
2022-12-31T05:54:29.555Z,7.80
2022-12-31T05:56:57.219Z,11.57
2022-12-31T05:59:25.111Z,7.75
2022-12-31T06:01:52.719Z,9.57
2022-12-31T06:04:20.391Z,6.17
2022-12-31T06:06:49.413Z,10.23
2022-12-31T06:09:17.468Z,8.93
2022-12-31T06:11:45.576Z,6.03
2022-12-31T06:14:13.241Z,11.43
2022-12-31T06:16:41.007Z,16.87
2022-12-31T06:19:09.016Z,7.70
2022-12-31T06:21:39.831Z,9.13
2022-12-31T06:24:09.142Z,19.17
2022-12-31T06:26:37.401Z,12.07
2022-12-31T06:29:04.952Z,11.23
2022-12-31T06:31:32.868Z,15.02
2022-12-31T06:34:00.631Z,12.18
2022-12-31T06:36:28.335Z,12.02
2022-12-31T06:38:56.229Z,18.92
2022-12-31T06:41:25.151Z,13.83
2022-12-31T06:43:52.673Z,15.40
2022-12-31T06:46:20.414Z,17.67
2022-12-31T06:48:48.077Z,19.08
2022-12-31T06:51:17.739Z,14.57
2022-12-31T06:53:45.864Z,13.13
2022-12-31T06:56:15.828Z,13.63
2022-12-31T06:58:45.996Z,17.20
2022-12-31T07:01:24.109Z,14.27
2022-12-31T07:03:56.904Z,19.77
2022-12-31T07:06:29.150Z,21.23
2022-12-31T07:09:01.832Z,9.55
2022-12-31T07:11:31.426Z,14.55
2022-12-31T07:14:10.190Z,16.75
2022-12-31T07:16:43.580Z,18.92
2022-12-31T07:19:17.677Z,15.73
2022-12-31T07:21:45.410Z,15.43
2022-12-31T07:24:13.584Z,18.85
2022-12-31T07:26:56.728Z,11.50
2022-12-31T07:29:30.579Z,16.63
2022-12-31T07:32:02.191Z,18.77
2022-12-31T07:34:39.161Z,16.33
2022-12-31T07:37:09.313Z,13.77
2022-12-31T07:39:40.652Z,12.32
2022-12-31T07:42:12.790Z,12.75
2022-12-31T07:44:48.423Z,10.23
2022-12-31T07:47:21.420Z,14.93
2022-12-31T07:49:50.299Z,12.32
2022-12-31T07:52:18.407Z,11.27
2022-12-31T07:54:46.034Z,14.45
2022-12-31T07:57:15.624Z,12.07
2022-12-31T07:59:52.447Z,10.68
2022-12-31T08:02:25.929Z,9.40
2022-12-31T08:05:00.933Z,11.77
2022-12-31T08:07:34.071Z,7.97
2022-12-31T08:10:04.097Z,9.33
2022-12-31T08:12:33.380Z,7.53
2022-12-31T08:15:03.299Z,11.40
2022-12-31T08:17:30.998Z,8.25
2022-12-31T08:19:59.086Z,9.95
2022-12-31T08:22:36.838Z,6.90
2022-12-31T08:25:12.313Z,9.88
2022-12-31T08:27:44.381Z,6.88
2022-12-31T08:30:14.647Z,7.22
2022-12-31T08:32:44.480Z,11.82
2022-12-31T08:35:17.623Z,7.67
2022-12-31T08:37:50.397Z,8.52
2022-12-31T08:40:22.185Z,9.13
2022-12-31T08:42:56.512Z,13.80
2022-12-31T08:45:27.217Z,15.35
2022-12-31T08:48:00.296Z,16.27
2022-12-31T08:50:28.534Z,19.48
2022-12-31T08:52:56.608Z,15.82
2022-12-31T08:55:24.908Z,22.25
2022-12-31T08:57:58.164Z,15.52
2022-12-31T09:00:28.674Z,13.37
2022-12-31T09:03:01.092Z,17.98
2022-12-31T09:05:33.147Z,19.38
2022-12-31T09:08:12.448Z,14.43
2022-12-31T09:10:41.888Z,17.13
2022-12-31T09:13:13.226Z,16.60
2022-12-31T09:15:44.821Z,23.05
2022-12-31T09:18:13.518Z,20.50
2022-12-31T09:20:43.361Z,23.08
2022-12-31T09:23:12.322Z,16.25
2022-12-31T09:25:43.387Z,9.20
2022-12-31T09:28:15.389Z,17.17
2022-12-31T09:30:47.457Z,10.82
2022-12-31T09:33:17.684Z,13.63
2022-12-31T09:35:49.154Z,18.38
2022-12-31T09:38:19.236Z,14.13
2022-12-31T09:41:07.443Z,11.93
2022-12-31T09:43:58.935Z,17.02
2022-12-31T09:46:41.726Z,15.32
2022-12-31T09:49:28.157Z,14.30
2022-12-31T09:52:01.494Z,11.43
2022-12-31T09:54:37.696Z,8.30
2022-12-31T09:57:17.511Z,14.07
2022-12-31T09:59:47.407Z,9.65
2022-12-31T10:02:20.929Z,14.60
2022-12-31T10:05:01.705Z,13.57
2022-12-31T10:07:36.309Z,12.68
2022-12-31T10:10:10.663Z,10.07
2022-12-31T10:12:55.427Z,16.77
2022-12-31T10:15:36.988Z,10.65
2022-12-31T10:18:10.407Z,9.53
2022-12-31T10:20:45.703Z,10.23
2022-12-31T10:23:33.484Z,9.75
2022-12-31T10:26:12.775Z,10.55
2022-12-31T10:28:46.664Z,12.65
2022-12-31T10:31:15.648Z,11.63
2022-12-31T10:33:46.085Z,12.75
2022-12-31T10:36:19.344Z,14.13
2022-12-31T10:38:50.550Z,6.65
2022-12-31T10:41:39.246Z,13.20
2022-12-31T10:44:21.708Z,11.70
2022-12-31T10:47:04.151Z,14.93
2022-12-31T10:49:48.559Z,10.98
2022-12-31T10:52:49.267Z,10.55
2022-12-31T10:55:40.854Z,12.02
2022-12-31T10:58:26.262Z,10.13
2022-12-31T11:00:55.683Z,10.73
2022-12-31T11:03:48.657Z,8.70
2022-12-31T11:06:40.246Z,9.13
2022-12-31T11:09:34.214Z,9.35
2022-12-31T11:12:09.775Z,8.60
2022-12-31T11:15:04.346Z,12.90
2022-12-31T11:17:39.502Z,10.48
2022-12-31T11:20:31.556Z,8.75
2022-12-31T11:23:04.323Z,7.88
2022-12-31T11:25:35.842Z,9.60
2022-12-31T11:28:09.484Z,9.25
2022-12-31T11:30:45.655Z,6.15
2022-12-31T11:33:18.213Z,10.82
2022-12-31T11:35:56.388Z,8.45
2022-12-31T11:38:26.499Z,7.47
2022-12-31T11:40:59.387Z,8.02
2022-12-31T11:43:31.634Z,6.93
2022-12-31T11:46:09.340Z,8.02
2022-12-31T11:48:42.798Z,6.57
2022-12-31T11:51:24.005Z,6.80
2022-12-31T11:54:04.976Z,13.35
2022-12-31T11:56:34.315Z,7.07
2022-12-31T11:59:09.285Z,9.60
2022-12-31T12:01:48.862Z,10.63
2022-12-31T12:04:16.561Z,12.20
2022-12-31T12:06:46.007Z,10.65
2022-12-31T12:09:16.009Z,13.68
2022-12-31T12:11:43.763Z,11.65
2022-12-31T12:14:29.549Z,15.80
2022-12-31T12:17:04.413Z,11.97
2022-12-31T12:19:34.262Z,11.20
2022-12-31T12:22:10.220Z,15.95
2022-12-31T12:24:37.854Z,12.75
2022-12-31T12:27:05.574Z,6.28
2022-12-31T12:29:35.297Z,8.10
2022-12-31T12:32:05.273Z,6.32
2022-12-31T12:34:36.279Z,7.07
2022-12-31T12:37:04.464Z,7.93
2022-12-31T12:39:33.196Z,8.75
2022-12-31T12:42:03.603Z,8.00
2022-12-31T12:44:31.684Z,6.07
2022-12-31T12:46:59.668Z,5.75
2022-12-31T12:49:29.639Z,7.25
2022-12-31T12:52:20.601Z,4.25
2022-12-31T12:54:56.931Z,4.77
2022-12-31T12:57:29.894Z,5.25
2022-12-31T13:00:01.080Z,6.63
2022-12-31T13:02:35.421Z,6.47
2022-12-31T13:05:15.711Z,4.45
2022-12-31T13:07:50.011Z,3.47
2022-12-31T13:10:23.037Z,2.50
2022-12-31T13:15:48.003Z,2.33
2022-12-31T13:18:33.406Z,1.85
2022-12-31T13:21:04.603Z,3.50
2022-12-31T13:23:39.702Z,2.97
2022-12-31T13:26:10.222Z,1.90
2022-12-31T13:28:42.004Z,2.58
2022-12-31T13:31:12.280Z,2.85
2022-12-31T13:33:42.261Z,1.60
2022-12-31T13:36:16.973Z,2.05
2022-12-31T13:38:46.207Z,2.42
2022-12-31T13:41:16.088Z,2.15
2022-12-31T13:43:50.806Z,2.28
2022-12-31T13:46:20.483Z,2.03
2022-12-31T13:48:50.605Z,2.30
2022-12-31T13:51:24.272Z,3.63
2022-12-31T13:53:54.750Z,3.97
2022-12-31T13:56:25.827Z,1.77
2022-12-31T13:58:55.754Z,4.70
2022-12-31T14:01:30.738Z,2.00
2022-12-31T14:04:06.333Z,2.22
2022-12-31T14:06:40.789Z,2.25
2022-12-31T14:09:10.416Z,3.95
2022-12-31T14:11:45.406Z,3.77
2022-12-31T14:14:16.789Z,2.40
2022-12-31T14:16:47.019Z,3.20
2022-12-31T14:19:19.592Z,4.25
2022-12-31T14:21:49.872Z,4.78
2022-12-31T14:24:31.021Z,4.17
2022-12-31T14:27:00.579Z,3.30
2022-12-31T14:29:32.812Z,5.47
2022-12-31T14:32:17.639Z,3.25
2022-12-31T14:34:49.708Z,4.10
2022-12-31T14:37:23.005Z,4.07
2022-12-31T14:39:54.011Z,3.70
2022-12-31T14:42:26.475Z,3.05
2022-12-31T14:45:00.766Z,2.17
2022-12-31T14:47:34.044Z,3.33
2022-12-31T14:50:06.250Z,3.07
2022-12-31T14:52:36.727Z,4.45
2022-12-31T14:55:21.856Z,4.28
2022-12-31T15:00:38.574Z,3.97
2022-12-31T15:03:07.094Z,4.37
2022-12-31T15:05:35.469Z,7.97
2022-12-31T15:08:10.947Z,4.55
2022-12-31T15:10:43.475Z,5.97
2022-12-31T15:13:17.444Z,5.35
2022-12-31T15:15:52.186Z,10.00
2022-12-31T15:18:33.031Z,6.00
2022-12-31T15:21:21.778Z,9.90
2022-12-31T15:23:52.545Z,8.60
2022-12-31T15:26:25.287Z,7.88
2022-12-31T15:29:00.674Z,9.00
2022-12-31T15:31:28.826Z,10.85
2022-12-31T15:34:00.615Z,11.20
2022-12-31T15:36:29.651Z,9.90
2022-12-31T15:39:23.961Z,10.07
2022-12-31T15:42:36.312Z,8.13
2022-12-31T15:44:45.965Z,7.45
2022-12-31T15:47:18.034Z,10.10
2022-12-31T15:49:46.551Z,7.15
2022-12-31T15:52:15.391Z,7.18
2022-12-31T15:54:47.231Z,6.00
2022-12-31T15:57:17.208Z,7.40
2022-12-31T15:59:44.895Z,9.80
2022-12-31T16:02:19.576Z,7.53
2022-12-31T16:04:48.312Z,5.32
2022-12-31T16:07:17.143Z,9.43
2022-12-31T16:09:48.364Z,11.95
2022-12-31T16:12:20.794Z,7.82
2022-12-31T16:14:52.325Z,7.93
2022-12-31T16:17:25.101Z,9.88
2022-12-31T16:19:52.738Z,6.63
2022-12-31T16:22:27.413Z,5.85
2022-12-31T16:27:45.803Z,6.93
2022-12-31T16:30:20.693Z,7.00
2022-12-31T16:32:49.526Z,5.87
2022-12-31T16:35:24.284Z,6.45
2022-12-31T16:38:03.420Z,10.38
2022-12-31T16:40:32.399Z,5.93
2022-12-31T16:42:59.990Z,5.25
2022-12-31T16:45:32.381Z,2.90
2022-12-31T16:48:02.036Z,5.43
2022-12-31T16:50:30.358Z,3.78
2022-12-31T16:53:00.327Z,4.80
2022-12-31T16:55:29.665Z,8.50
2022-12-31T16:58:00.454Z,8.73
2022-12-31T17:00:28.109Z,7.50
2022-12-31T17:03:01.442Z,7.30
2022-12-31T17:05:29.253Z,9.73
2022-12-31T17:07:56.829Z,12.50
2022-12-31T17:10:26.438Z,11.83
2022-12-31T17:15:44.891Z,9.82
2022-12-31T17:18:14.698Z,11.05
2022-12-31T17:20:42.237Z,9.07
2022-12-31T17:23:10.096Z,7.90
2022-12-31T17:25:38.471Z,9.85
2022-12-31T17:28:06.918Z,5.70
2022-12-31T17:30:40.221Z,8.52
2022-12-31T17:33:29.288Z,10.32
2022-12-31T17:35:57.792Z,8.00
2022-12-31T17:38:33.941Z,6.88
2022-12-31T17:41:04.303Z,4.88
2022-12-31T17:43:35.190Z,5.68
2022-12-31T17:46:03.883Z,4.47
2022-12-31T17:48:33.096Z,4.73
2022-12-31T17:51:01.881Z,5.80
2022-12-31T17:53:33.319Z,6.50
2022-12-31T17:56:04.054Z,4.18
2022-12-31T17:58:33.103Z,6.07
2022-12-31T18:01:00.912Z,6.67
2022-12-31T18:03:28.649Z,7.55
2022-12-31T18:05:57.619Z,8.38
2022-12-31T18:08:25.358Z,8.40
2022-12-31T18:10:53.402Z,6.47
2022-12-31T18:13:21.790Z,5.87
2022-12-31T18:15:49.356Z,6.97
2022-12-31T18:18:24.761Z,6.22
2022-12-31T18:20:55.620Z,8.65
2022-12-31T18:23:26.752Z,7.78
2022-12-31T18:25:58.120Z,12.83
2022-12-31T18:28:26.188Z,8.25
2022-12-31T18:30:53.848Z,5.50
2022-12-31T18:33:25.021Z,3.88
2022-12-31T18:36:10.039Z,4.80
2022-12-31T18:38:40.508Z,3.37
2022-12-31T18:41:08.438Z,4.88
2022-12-31T18:43:36.002Z,3.90
2022-12-31T18:46:03.714Z,4.32
2022-12-31T18:48:31.321Z,3.65
2022-12-31T18:50:58.995Z,3.27
2022-12-31T18:53:26.632Z,2.88
2022-12-31T18:55:56.067Z,2.53
2022-12-31T18:58:23.928Z,3.30
2022-12-31T19:00:51.906Z,3.30
2022-12-31T19:03:25.209Z,3.30
2022-12-31T19:05:53.658Z,3.67
2022-12-31T19:08:22.367Z,2.47
2022-12-31T19:10:51.083Z,2.40
2022-12-31T19:13:20.924Z,1.70
2022-12-31T19:15:49.489Z,1.90
2022-12-31T19:18:17.096Z,2.00
2022-12-31T19:20:44.691Z,2.00
2022-12-31T19:23:14.595Z,2.47
2022-12-31T19:25:42.241Z,3.10
2022-12-31T19:28:15.567Z,2.10
2022-12-31T19:30:44.840Z,3.03
2022-12-31T19:33:12.621Z,1.60
2022-12-31T19:35:41.534Z,1.90
2022-12-31T19:38:16.845Z,2.88
2022-12-31T19:40:44.591Z,2.77
2022-12-31T19:43:12.819Z,2.90
2022-12-31T19:45:41.361Z,4.07
2022-12-31T19:48:12.179Z,3.85
2022-12-31T19:50:41.884Z,2.92
2022-12-31T19:53:11.316Z,2.73
2022-12-31T19:55:38.848Z,2.00
2022-12-31T19:58:06.435Z,2.95
2022-12-31T20:00:34.188Z,4.30
2022-12-31T20:03:01.900Z,4.20
2022-12-31T20:05:30.879Z,2.77
2022-12-31T20:07:58.556Z,2.47
2022-12-31T20:10:26.163Z,2.80
2022-12-31T20:12:53.863Z,3.05
2022-12-31T20:15:21.423Z,2.30
2022-12-31T20:17:49.008Z,3.33
2022-12-31T20:20:16.824Z,2.20
2022-12-31T20:22:45.843Z,1.73
2022-12-31T20:25:13.379Z,2.95
2022-12-31T20:27:41.051Z,2.88
2022-12-31T20:30:10.708Z,2.33
2022-12-31T20:32:38.348Z,2.97
2022-12-31T20:35:06.454Z,2.50
2022-12-31T20:37:34.201Z,3.28
2022-12-31T20:40:03.065Z,2.28
2022-12-31T20:42:31.096Z,2.10
2022-12-31T20:44:58.769Z,2.90
2022-12-31T20:47:26.298Z,2.22
2022-12-31T20:50:10.857Z,2.22
2022-12-31T20:52:39.347Z,2.80
2022-12-31T20:55:09.690Z,3.53
2022-12-31T20:57:38.237Z,3.83
2022-12-31T21:00:07.431Z,2.95
2022-12-31T21:02:41.932Z,2.72
2022-12-31T21:05:10.549Z,2.25
2022-12-31T21:07:38.313Z,2.47
2022-12-31T21:10:06.277Z,2.95
2022-12-31T21:12:53.207Z,2.85
2022-12-31T21:15:22.016Z,2.85
2022-12-31T21:17:49.565Z,3.92
2022-12-31T21:20:17.192Z,3.53
2022-12-31T21:22:44.877Z,3.13
2022-12-31T21:25:12.577Z,3.03
2022-12-31T21:27:42.746Z,3.35
2022-12-31T21:30:19.792Z,2.28
2022-12-31T21:32:47.993Z,3.60
2022-12-31T21:35:42.338Z,2.45
2022-12-31T21:38:07.575Z,3.40
2022-12-31T21:40:35.187Z,3.13
2022-12-31T21:43:04.601Z,3.20
2022-12-31T21:45:32.428Z,2.50
2022-12-31T21:48:19.886Z,4.45
2022-12-31T21:50:48.880Z,2.78
2022-12-31T21:53:23.490Z,5.35
2022-12-31T21:56:11.069Z,5.15
2022-12-31T21:58:41.009Z,2.90
2022-12-31T22:01:28.796Z,3.50
2022-12-31T22:03:56.451Z,4.95
2022-12-31T22:06:25.000Z,6.82
2022-12-31T22:08:54.082Z,6.47
2022-12-31T22:11:22.729Z,7.20
2022-12-31T22:13:51.949Z,4.88
2022-12-31T22:16:20.460Z,5.20
2022-12-31T22:18:48.507Z,6.88
2022-12-31T22:21:19.235Z,8.00
2022-12-31T22:23:47.899Z,4.53
2022-12-31T22:26:19.965Z,5.93
2022-12-31T22:28:47.938Z,7.57
2022-12-31T22:31:18.076Z,4.20
2022-12-31T22:33:45.992Z,5.28
2022-12-31T22:36:14.641Z,5.90
2022-12-31T22:38:42.513Z,9.98
2022-12-31T22:41:11.185Z,5.20
2022-12-31T22:43:40.311Z,3.85
2022-12-31T22:46:09.007Z,6.25
2022-12-31T22:48:37.973Z,10.17
2022-12-31T22:51:06.165Z,7.28
2022-12-31T22:53:34.235Z,4.15
2022-12-31T22:56:12.122Z,3.85
2022-12-31T22:58:39.782Z,6.75
2022-12-31T23:01:07.795Z,5.33
2022-12-31T23:03:35.640Z,6.10
2022-12-31T23:06:04.794Z,7.28
2022-12-31T23:08:32.478Z,3.53
2022-12-31T23:11:00.939Z,6.85
2022-12-31T23:13:50.542Z,4.43
2022-12-31T23:16:40.704Z,7.07
2022-12-31T23:19:26.188Z,4.10
2022-12-31T23:22:12.491Z,5.05
2022-12-31T23:24:40.333Z,4.70
2022-12-31T23:27:08.358Z,2.63
2022-12-31T23:29:45.572Z,7.00
2022-12-31T23:32:14.714Z,4.78
2022-12-31T23:34:43.560Z,3.65
2022-12-31T23:37:12.840Z,4.63
2022-12-31T23:39:40.495Z,3.03
2022-12-31T23:42:08.198Z,5.78
2022-12-31T23:44:35.771Z,4.50
2022-12-31T23:47:05.407Z,5.03
2022-12-31T23:49:33.043Z,3.10
2022-12-31T23:52:01.610Z,3.43
2022-12-31T23:54:31.658Z,6.35
2022-12-31T23:56:59.224Z,3.20
2022-12-31T23:59:26.989Z,10.13
